Time;durP1;ratioP1;P1;durP2;ratioP2;P2;SDS_P1;SDS_P2;PMS_P1;PMS_P2;Temp;Humidity;BMP_temperature;BMP_pressure;BME280_temperature;BME280_humidity;BME280_pressure;Samples;Min_cycle;Max_cycle;Signal;HPM_P1;HPM_P2
2022/01/22 00:00:59;;;;;;;9.88;2.03;;;;;;;;;;5012865;28;20527;-43
2022/01/22 00:03:26;;;;;;;13.70;2.30;;;;;;;;;;5007551;28;20029;-44
2022/01/22 00:05:53;;;;;;;8.48;1.83;;;;;;;;;;5013560;28;20088;-43
2022/01/22 00:08:20;;;;;;;9.75;2.33;;;;;;;;;;5012683;28;20033;-44
2022/01/22 00:10:50;;;;;;;9.52;2.00;;;;;;;;;;5013388;28;20834;-45
2022/01/22 00:15:44;;;;;;;8.32;2.13;;;;;;;;;;5012328;28;20049;-43
2022/01/22 00:18:11;;;;;;;10.00;1.98;;;;;;;;;;5010069;28;20535;-44
2022/01/22 00:20:38;;;;;;;9.00;2.03;;;;;;;;;;5011243;28;20728;-45
2022/01/22 00:23:05;;;;;;;13.20;2.33;;;;;;;;;;5007327;28;20539;-43
2022/01/22 00:25:33;;;;;;;12.02;2.55;;;;;;;;;;5008837;28;20475;-43
2022/01/22 00:28:03;;;;;;;22.58;3.30;;;;;;;;;;5003627;28;20065;-44
2022/01/22 00:30:30;;;;;;;9.82;3.38;;;;;;;;;;5010957;28;20030;-44
2022/01/22 00:32:57;;;;;;;21.67;3.10;;;;;;;;;;5006698;28;20042;-48
2022/01/22 00:35:24;;;;;;;18.65;4.07;;;;;;;;;;5012464;28;20029;-44
2022/01/22 00:37:52;;;;;;;13.40;3.60;;;;;;;;;;5005196;28;20021;-44
2022/01/22 00:40:20;;;;;;;24.85;4.22;;;;;;;;;;5005023;28;20029;-44
2022/01/22 00:42:47;;;;;;;16.27;3.97;;;;;;;;;;5006995;28;20029;-47
2022/01/22 00:45:14;;;;;;;9.20;3.50;;;;;;;;;;5012560;28;20480;-43
2022/01/22 00:47:41;;;;;;;10.25;3.83;;;;;;;;;;5012237;28;20087;-43
2022/01/22 00:50:11;;;;;;;11.30;3.90;;;;;;;;;;5008478;28;20021;-43
2022/01/22 00:52:40;;;;;;;14.40;3.97;;;;;;;;;;5007529;28;20399;-45
2022/01/22 00:55:07;;;;;;;8.07;3.30;;;;;;;;;;5007153;28;20040;-45
2022/01/22 00:57:34;;;;;;;12.18;3.05;;;;;;;;;;5009784;28;20037;-44
2022/01/22 01:00:01;;;;;;;9.18;2.78;;;;;;;;;;5010698;28;20038;-44
2022/01/22 01:02:28;;;;;;;10.25;3.33;;;;;;;;;;5010328;28;20029;-44
2022/01/22 01:04:55;;;;;;;8.60;2.97;;;;;;;;;;5004795;28;20022;-45
2022/01/22 01:07:22;;;;;;;8.48;3.00;;;;;;;;;;5011218;28;20097;-44
2022/01/22 01:09:49;;;;;;;13.00;3.00;;;;;;;;;;5010934;28;20048;-45
2022/01/22 01:12:16;;;;;;;10.07;3.17;;;;;;;;;;5010032;28;20030;-46
2022/01/22 01:14:55;;;;;;;8.73;2.78;;;;;;;;;;5005796;28;20034;-44
2022/01/22 01:33:59;;;;;;;11.52;3.38;;;;;;;;;;5007482;28;20049;-46
2022/01/22 01:36:27;;;;;;;9.95;3.85;;;;;;;;;;5012267;28;20069;-45
2022/01/22 01:38:58;;;;;;;11.43;3.67;;;;;;;;;;5012623;28;20029;-44
2022/01/22 01:41:37;;;;;;;10.37;2.90;;;;;;;;;;5010751;28;20041;-44
2022/01/22 01:44:04;;;;;;;7.57;3.20;;;;;;;;;;5007877;28;20046;-43
2022/01/22 01:46:33;;;;;;;7.05;3.20;;;;;;;;;;5010981;28;20032;-43
2022/01/22 01:49:02;;;;;;;8.10;3.30;;;;;;;;;;5012346;28;20060;-43
2022/01/22 01:51:32;;;;;;;8.50;3.28;;;;;;;;;;5012147;28;20057;-46
2022/01/22 01:59:29;;;;;;;5.95;2.75;;;;;;;;;;5009373;28;20044;-44
2022/01/22 02:01:56;;;;;;;8.00;4.00;;;;;;;;;;5010213;28;20071;-44
2022/01/22 02:04:23;;;;;;;11.15;3.40;;;;;;;;;;5007580;28;20655;-45
2022/01/22 02:06:50;;;;;;;8.32;3.50;;;;;;;;;;5007949;28;20121;-45
2022/01/22 02:09:17;;;;;;;5.45;3.10;;;;;;;;;;5010237;28;20388;-44
2022/01/22 02:11:45;;;;;;;5.40;2.55;;;;;;;;;;5008960;28;20136;-44
2022/01/22 02:25:34;;;;;;;8.90;2.65;;;;;;;;;;4981881;28;20049;-47
2022/01/22 02:28:03;;;;;;;3.90;2.35;;;;;;;;;;4988255;28;20072;-45
2022/01/22 02:30:33;;;;;;;2.90;2.08;;;;;;;;;;4992082;28;20042;-45
2022/01/22 02:33:15;;;;;;;8.48;2.40;;;;;;;;;;4987620;28;20042;-44
2022/01/22 02:35:54;;;;;;;4.55;2.30;;;;;;;;;;4988435;28;20638;-44
2022/01/22 02:38:31;;;;;;;4.80;2.55;;;;;;;;;;5001166;28;20345;-45
2022/01/22 02:40:58;;;;;;;4.30;2.30;;;;;;;;;;5008549;28;20548;-46
2022/01/22 02:43:25;;;;;;;6.32;2.25;;;;;;;;;;5009735;28;20109;-48
2022/01/22 02:45:54;;;;;;;2.90;1.80;;;;;;;;;;5004398;28;20043;-47
2022/01/22 02:48:21;;;;;;;6.50;2.45;;;;;;;;;;5010347;28;20460;-46
2022/01/22 02:50:49;;;;;;;4.15;1.75;;;;;;;;;;5010131;28;20021;-49
2022/01/22 02:53:16;;;;;;;5.10;2.05;;;;;;;;;;5010067;28;20561;-47
2022/01/22 02:55:45;;;;;;;3.17;1.95;;;;;;;;;;5005546;28;20066;-50
2022/01/22 02:58:14;;;;;;;5.20;1.90;;;;;;;;;;5008416;28;20034;-46
2022/01/22 03:00:42;;;;;;;4.68;2.10;;;;;;;;;;5010152;28;20041;-47
2022/01/22 03:03:10;;;;;;;2.05;1.70;;;;;;;;;;5008754;28;20056;-46
2022/01/22 03:05:38;;;;;;;3.53;1.90;;;;;;;;;;5010257;28;20139;-47
2022/01/22 03:08:09;;;;;;;3.60;2.00;;;;;;;;;;5005322;28;20034;-47
2022/01/22 03:10:38;;;;;;;5.28;2.08;;;;;;;;;;5010224;28;20045;-46
2022/01/22 03:18:34;;;;;;;3.78;1.85;;;;;;;;;;5004180;28;20567;-49
2022/01/22 03:21:14;;;;;;;4.32;2.10;;;;;;;;;;5009119;28;20071;-47
2022/01/22 03:29:31;;;;;;;3.58;2.30;;;;;;;;;;5013874;28;20084;-47
2022/01/22 03:32:00;;;;;;;3.72;2.17;;;;;;;;;;5012387;28;20092;-47
2022/01/22 03:34:37;;;;;;;2.92;1.70;;;;;;;;;;5013499;28;20077;-47
2022/01/22 03:37:05;;;;;;;3.20;2.08;;;;;;;;;;5008829;28;20120;-46
2022/01/22 03:39:34;;;;;;;2.03;1.50;;;;;;;;;;5012976;28;20436;-46
2022/01/22 03:42:02;;;;;;;3.63;2.15;;;;;;;;;;5011823;28;20538;-46
2022/01/22 03:44:31;;;;;;;4.75;1.70;;;;;;;;;;5013456;28;20367;-46
2022/01/22 03:46:58;;;;;;;3.88;1.70;;;;;;;;;;5011600;28;20087;-47
2022/01/22 03:49:26;;;;;;;1.80;1.55;;;;;;;;;;5009870;28;20502;-48
2022/01/22 03:51:53;;;;;;;2.53;1.92;;;;;;;;;;5013798;28;20444;-46
2022/01/22 03:54:21;;;;;;;7.20;1.60;;;;;;;;;;5013449;28;20049;-47
2022/01/22 03:56:51;;;;;;;4.63;1.83;;;;;;;;;;5010718;28;20038;-50
2022/01/22 03:59:19;;;;;;;2.95;1.90;;;;;;;;;;5007956;28;20575;-46
2022/01/22 04:04:43;;;;;;;8.13;1.60;;;;;;;;;;5011272;28;20510;-47
2022/01/22 04:10:14;;;;;;;4.65;1.75;;;;;;;;;;4983347;28;20039;-46
2022/01/22 04:15:22;;;;;;;3.65;1.52;;;;;;;;;;5011185;28;20049;-46
2022/01/22 04:26:02;;;;;;;3.35;1.77;;;;;;;;;;5012404;28;20099;-47
2022/01/22 04:28:29;;;;;;;6.13;1.85;;;;;;;;;;5005967;28;20038;-48
2022/01/22 04:30:56;;;;;;;10.52;2.03;;;;;;;;;;5013256;28;20026;-43
2022/01/22 04:33:23;;;;;;;6.30;2.20;;;;;;;;;;5014346;28;20050;-45
2022/01/22 04:35:50;;;;;;;2.92;2.10;;;;;;;;;;5013359;28;20042;-44
2022/01/22 04:38:17;;;;;;;5.03;1.88;;;;;;;;;;5012496;28;20030;-44
2022/01/22 04:40:44;;;;;;;4.35;1.80;;;;;;;;;;5010551;28;20396;-44
2022/01/22 04:43:11;;;;;;;3.97;2.10;;;;;;;;;;5014238;28;20432;-44
2022/01/22 04:48:41;;;;;;;8.65;2.15;;;;;;;;;;5014003;28;20034;-44
2022/01/22 04:56:39;;;;;;;4.40;2.30;;;;;;;;;;5014352;28;20092;-43
2022/01/22 04:59:06;;;;;;;6.70;2.20;;;;;;;;;;5008092;28;20041;-49
2022/01/22 05:01:33;;;;;;;5.35;2.00;;;;;;;;;;5013284;28;20026;-43
2022/01/22 05:04:00;;;;;;;7.63;1.98;;;;;;;;;;5014226;28;20038;-44
2022/01/22 05:06:29;;;;;;;3.88;2.15;;;;;;;;;;5013950;28;20029;-44
2022/01/22 05:08:57;;;;;;;4.22;1.95;;;;;;;;;;5012545;28;20387;-44
2022/01/22 05:11:24;;;;;;;2.80;1.58;;;;;;;;;;5010047;28;20037;-43
2022/01/22 05:13:52;;;;;;;3.53;2.15;;;;;;;;;;5013935;28;20430;-44
2022/01/22 05:16:20;;;;;;;2.88;1.95;;;;;;;;;;5013788;28;20057;-44
2022/01/22 05:18:57;;;;;;;6.20;2.58;;;;;;;;;;5012347;28;20083;-43
2022/01/22 05:21:25;;;;;;;3.92;2.13;;;;;;;;;;5007918;28;20041;-44
2022/01/22 05:23:54;;;;;;;2.45;1.75;;;;;;;;;;5013834;28;20037;-44
2022/01/22 05:26:46;;;;;;;3.03;1.40;;;;;;;;;;5013582;28;20557;-43
2022/01/22 05:37:04;;;;;;;2.13;1.63;;;;;;;;;;5013374;28;20062;-49
2022/01/22 05:39:32;;;;;;;1.50;1.40;;;;;;;;;;5013239;28;20069;-48
2022/01/22 05:42:01;;;;;;;3.15;1.80;;;;;;;;;;5008041;28;20109;-47
2022/01/22 05:44:29;;;;;;;3.08;1.45;;;;;;;;;;5013563;28;20033;-48
2022/01/22 05:46:58;;;;;;;1.90;1.17;;;;;;;;;;5013294;28;20480;-51
2022/01/22 05:49:28;;;;;;;2.85;1.45;;;;;;;;;;5012824;28;20034;-49
2022/01/22 05:51:57;;;;;;;3.33;1.50;;;;;;;;;;5007439;28;20034;-50
2022/01/22 05:59:39;;;;;;;1.65;1.50;;;;;;;;;;5012968;28;20505;-47
2022/01/22 06:02:07;;;;;;;2.60;1.52;;;;;;;;;;5007639;28;20687;-47
2022/01/22 06:04:35;;;;;;;2.15;1.30;;;;;;;;;;5013196;28;20044;-49
2022/01/22 06:07:02;;;;;;;2.67;1.65;;;;;;;;;;5013004;28;20480;-50
2022/01/22 06:09:31;;;;;;;2.70;1.35;;;;;;;;;;5012859;28;20068;-45
2022/01/22 06:12:15;;;;;;;2.13;1.20;;;;;;;;;;5007263;28;20495;-48
2022/01/22 06:14:42;;;;;;;2.72;1.50;;;;;;;;;;5012795;28;20034;-48
2022/01/22 06:17:09;;;;;;;3.40;1.40;;;;;;;;;;5012616;28;20506;-49
2022/01/22 06:19:36;;;;;;;2.55;1.35;;;;;;;;;;5012493;28;20108;-46
2022/01/22 06:22:03;;;;;;;1.83;1.10;;;;;;;;;;5007201;28;20045;-49
2022/01/22 06:24:30;;;;;;;1.75;1.33;;;;;;;;;;5012502;28;20121;-47
2022/01/22 06:26:57;;;;;;;2.40;1.60;;;;;;;;;;5013143;28;20045;-46
2022/01/22 06:29:24;;;;;;;1.52;1.33;;;;;;;;;;5009282;28;20614;-50
2022/01/22 06:31:51;;;;;;;2.78;1.30;;;;;;;;;;4996192;28;20405;-47
2022/01/22 06:34:18;;;;;;;3.35;1.35;;;;;;;;;;5004079;28;20066;-47
2022/01/22 06:36:45;;;;;;;3.15;1.33;;;;;;;;;;4992713;28;20120;-49
2022/01/22 06:39:15;;;;;;;2.13;1.40;;;;;;;;;;4992919;28;20022;-47
2022/01/22 06:41:46;;;;;;;1.67;1.10;;;;;;;;;;4993164;28;20101;-48
2022/01/22 06:44:13;;;;;;;1.50;1.23;;;;;;;;;;4990498;28;20033;-48
2022/01/22 06:46:40;;;;;;;1.40;1.30;;;;;;;;;;4991968;28;20033;-47
2022/01/22 06:49:07;;;;;;;2.28;1.50;;;;;;;;;;4991001;28;20064;-48
2022/01/22 06:51:34;;;;;;;3.25;1.60;;;;;;;;;;4992333;28;20041;-48
2022/01/22 06:54:05;;;;;;;4.90;1.60;;;;;;;;;;4992837;28;20085;-49
2022/01/22 06:56:32;;;;;;;3.63;1.27;;;;;;;;;;4995124;28;20046;-48
2022/01/22 06:59:00;;;;;;;2.38;1.30;;;;;;;;;;5001475;28;20042;-48
2022/01/22 07:01:28;;;;;;;2.72;1.30;;;;;;;;;;5004237;28;20026;-47
2022/01/22 07:03:55;;;;;;;2.38;1.20;;;;;;;;;;4998392;28;20073;-48
2022/01/22 07:06:23;;;;;;;3.03;1.23;;;;;;;;;;5002577;28;20025;-48
2022/01/22 07:08:50;;;;;;;1.63;1.30;;;;;;;;;;4994445;28;20022;-51
2022/01/22 07:11:17;;;;;;;2.00;1.40;;;;;;;;;;5013396;28;20392;-50
2022/01/22 07:13:44;;;;;;;1.60;1.20;;;;;;;;;;5009482;28;20533;-46
2022/01/22 07:16:12;;;;;;;1.30;1.20;;;;;;;;;;5012443;28;20021;-47
2022/01/22 07:19:06;;;;;;;1.33;1.20;;;;;;;;;;5012867;28;20018;-46
2022/01/22 07:24:49;;;;;;;3.15;1.30;;;;;;;;;;4993599;28;20393;-48
2022/01/22 07:30:33;;;;;;;1.15;1.00;;;;;;;;;;4992039;28;21406;-52
2022/01/22 07:33:00;;;;;;;2.20;1.30;;;;;;;;;;5009271;28;20042;-47
2022/01/22 07:35:28;;;;;;;2.58;1.40;;;;;;;;;;5011565;28;20108;-49
2022/01/22 07:37:55;;;;;;;1.08;0.98;;;;;;;;;;5011163;28;20132;-49
2022/01/22 07:40:22;;;;;;;1.45;1.10;;;;;;;;;;5010472;28;20374;-47
2022/01/22 07:42:49;;;;;;;1.67;1.50;;;;;;;;;;5006506;28;20030;-47
2022/01/22 07:45:16;;;;;;;1.42;1.33;;;;;;;;;;5011538;28;20033;-48
2022/01/22 07:47:43;;;;;;;1.13;1.02;;;;;;;;;;5011271;28;20435;-49
2022/01/22 07:50:10;;;;;;;2.55;1.50;;;;;;;;;;5011192;28;20105;-47
2022/01/22 07:52:37;;;;;;;4.28;1.40;;;;;;;;;;5005988;28;20022;-48
2022/01/22 07:55:05;;;;;;;1.95;1.20;;;;;;;;;;5011083;28;20059;-48
2022/01/22 07:57:32;;;;;;;2.33;1.40;;;;;;;;;;5011279;28;20038;-49
2022/01/22 07:59:59;;;;;;;2.72;1.50;;;;;;;;;;5010944;28;20088;-48
2022/01/22 08:02:26;;;;;;;1.85;1.20;;;;;;;;;;5005537;28;20045;-47
2022/01/22 08:04:53;;;;;;;2.15;1.30;;;;;;;;;;5009726;28;20062;-48
2022/01/22 08:07:20;;;;;;;1.10;1.00;;;;;;;;;;5011326;28;20396;-49
2022/01/22 08:09:47;;;;;;;1.23;1.13;;;;;;;;;;5009977;28;20396;-48
2022/01/22 08:12:14;;;;;;;1.35;1.25;;;;;;;;;;5009179;28;20030;-46
2022/01/22 08:14:41;;;;;;;1.98;1.30;;;;;;;;;;5014292;28;20110;-49
2022/01/22 08:17:08;;;;;;;1.38;1.27;;;;;;;;;;5014601;28;20109;-47
2022/01/22 08:19:35;;;;;;;3.67;1.50;;;;;;;;;;5014484;28;20060;-47
2022/01/22 08:22:02;;;;;;;3.72;1.50;;;;;;;;;;5009086;28;20030;-47
2022/01/22 08:24:29;;;;;;;2.45;1.40;;;;;;;;;;5014324;28;20021;-51
2022/01/22 08:29:32;;;;;;;1.90;1.50;;;;;;;;;;5014529;28;20041;-48
2022/01/22 08:32:08;;;;;;;1.30;1.20;;;;;;;;;;5010200;28;20073;-48
2022/01/22 08:37:21;;;;;;;1.83;1.20;;;;;;;;;;5014470;28;20143;-46
2022/01/22 08:39:49;;;;;;;2.17;1.25;;;;;;;;;;5014141;28;20563;-47
2022/01/22 08:42:16;;;;;;;1.45;1.17;;;;;;;;;;5010404;28;20626;-48
2022/01/22 08:44:43;;;;;;;1.95;1.40;;;;;;;;;;5012678;28;20029;-48
2022/01/22 08:47:10;;;;;;;1.63;1.25;;;;;;;;;;5014340;28;20022;-48
2022/01/22 08:49:37;;;;;;;1.60;1.40;;;;;;;;;;5014011;28;20048;-47
2022/01/22 08:52:09;;;;;;;2.70;1.35;;;;;;;;;;5013333;28;20395;-48
2022/01/22 08:54:37;;;;;;;1.60;1.50;;;;;;;;;;5010136;28;20045;-50
2022/01/22 08:57:04;;;;;;;1.45;1.30;;;;;;;;;;5013686;28;20082;-48
2022/01/22 08:59:31;;;;;;;1.30;1.20;;;;;;;;;;5013734;28;20025;-47
2022/01/22 09:01:58;;;;;;;2.25;1.33;;;;;;;;;;5013560;28;20041;-49
2022/01/22 09:04:26;;;;;;;1.60;1.50;;;;;;;;;;5008085;28;20487;-48
2022/01/22 09:06:53;;;;;;;2.10;1.45;;;;;;;;;;5013236;28;20514;-48
2022/01/22 09:09:20;;;;;;;1.55;1.45;;;;;;;;;;5013602;28;20041;-48
2022/01/22 09:11:48;;;;;;;1.27;1.10;;;;;;;;;;5013475;28;20058;-48
2022/01/22 09:14:16;;;;;;;2.38;1.27;;;;;;;;;;5008325;28;20074;-46
2022/01/22 09:16:43;;;;;;;2.88;1.52;;;;;;;;;;5013140;28;20033;-49
2022/01/22 09:19:12;;;;;;;1.70;1.40;;;;;;;;;;5013336;28;20041;-49
2022/01/22 09:21:41;;;;;;;1.38;1.27;;;;;;;;;;5012868;28;20033;-47
2022/01/22 09:24:09;;;;;;;1.85;1.45;;;;;;;;;;5007713;28;20041;-49
2022/01/22 09:26:36;;;;;;;1.20;1.10;;;;;;;;;;5012918;28;20030;-51
2022/01/22 09:29:04;;;;;;;3.45;1.50;;;;;;;;;;5013477;28;20084;-48
2022/01/22 09:31:32;;;;;;;4.72;1.40;;;;;;;;;;5012827;28;20041;-48
2022/01/22 09:34:00;;;;;;;3.47;1.40;;;;;;;;;;5007826;28;20077;-48
2022/01/22 09:36:28;;;;;;;1.42;1.27;;;;;;;;;;5012926;28;20044;-49
2022/01/22 09:38:55;;;;;;;2.10;1.20;;;;;;;;;;5013299;28;20462;-48
2022/01/22 09:41:23;;;;;;;2.97;1.35;;;;;;;;;;5013020;28;20033;-48
2022/01/22 09:43:50;;;;;;;2.78;1.50;;;;;;;;;;5008106;28;20826;-49
2022/01/22 09:46:17;;;;;;;2.95;1.58;;;;;;;;;;5012793;28;20030;-48
2022/01/22 09:48:46;;;;;;;5.03;2.03;;;;;;;;;;5012710;28;20026;-49
2022/01/22 09:51:13;;;;;;;1.85;1.40;;;;;;;;;;5012845;28;20473;-49
2022/01/22 09:53:42;;;;;;;3.65;1.40;;;;;;;;;;5011238;28;20396;-51
2022/01/22 09:56:11;;;;;;;1.60;1.35;;;;;;;;;;5009627;28;20051;-50
2022/01/22 09:58:38;;;;;;;1.40;1.30;;;;;;;;;;5012374;28;20064;-48
2022/01/22 10:01:21;;;;;;;1.80;1.48;;;;;;;;;;5012610;28;20034;-46
2022/01/22 10:03:49;;;;;;;1.50;1.30;;;;;;;;;;5011576;28;20556;-49
2022/01/22 10:06:17;;;;;;;2.25;2.00;;;;;;;;;;5022338;23;20077;-33
2022/01/22 10:08:44;;;;;;;4.78;1.58;;;;;;;;;;5011230;28;20042;-33
2022/01/22 10:11:18;;;;;;;1.73;1.63;;;;;;;;;;5012184;28;20113;-32
2022/01/22 10:13:53;;;;;;;1.77;1.67;;;;;;;;;;5012508;28;20034;-34
2022/01/22 10:16:39;;;;;;;2.20;1.80;;;;;;;;;;5004345;28;20117;-34
2022/01/22 10:19:15;;;;;;;2.67;1.70;;;;;;;;;;5012210;28;20102;-33
2022/01/22 10:21:44;;;;;;;2.85;1.60;;;;;;;;;;5012370;28;20042;-32
2022/01/22 10:24:42;;;;;;;2.22;1.60;;;;;;;;;;5012309;28;20113;-33
2022/01/22 10:27:18;;;;;;;2.70;1.70;;;;;;;;;;5010986;28;20479;-33
2022/01/22 10:29:51;;;;;;;4.13;1.65;;;;;;;;;;5027225;28;20088;-32
2022/01/22 10:32:20;;;;;;;3.08;1.40;;;;;;;;;;5011485;28;20041;-33
2022/01/22 10:34:47;;;;;;;1.90;1.70;;;;;;;;;;5007379;28;20099;-33
2022/01/22 10:37:14;;;;;;;2.03;1.52;;;;;;;;;;5023158;28;20038;-32
2022/01/22 10:39:41;;;;;;;4.15;1.80;;;;;;;;;;5012140;28;20110;-32
2022/01/22 10:42:25;;;;;;;2.30;2.10;;;;;;;;;;5012137;28;20146;-32
2022/01/22 10:45:00;;;;;;;1.90;1.50;;;;;;;;;;5025675;28;20034;-35
2022/01/22 10:47:28;;;;;;;3.22;1.60;;;;;;;;;;4990735;28;20113;-34
2022/01/22 10:49:55;;;;;;;1.95;1.60;;;;;;;;;;4992276;28;20488;-33
2022/01/22 10:52:22;;;;;;;3.38;2.05;;;;;;;;;;4992368;28;20041;-33
2022/01/22 10:54:49;;;;;;;2.58;2.05;;;;;;;;;;4992180;28;20061;-33
2022/01/22 10:57:17;;;;;;;2.38;1.80;;;;;;;;;;4990463;28;20431;-33
2022/01/22 10:59:55;;;;;;;4.40;1.80;;;;;;;;;;4992147;28;20031;-33
2022/01/22 11:02:51;;;;;;;2.45;1.80;;;;;;;;;;4992865;28;20026;-33
2022/01/22 11:05:35;;;;;;;3.80;1.80;;;;;;;;;;4987217;28;20129;-37
2022/01/22 11:08:16;;;;;;;2.63;2.20;;;;;;;;;;5023319;28;20037;-34
2022/01/22 11:10:44;;;;;;;2.72;2.38;;;;;;;;;;5011873;28;20486;-32
2022/01/22 11:13:11;;;;;;;4.63;2.53;;;;;;;;;;5011831;28;20034;-33
2022/01/22 11:15:40;;;;;;;2.75;2.50;;;;;;;;;;5009956;28;20117;-33
2022/01/22 11:18:08;;;;;;;3.40;2.90;;;;;;;;;;5006582;28;20040;-34
2022/01/22 11:20:37;;;;;;;5.65;2.80;;;;;;;;;;5011790;28;20025;-32
2022/01/22 11:23:05;;;;;;;4.75;2.92;;;;;;;;;;5011728;28;20387;-32
2022/01/22 11:25:35;;;;;;;5.15;2.83;;;;;;;;;;5011664;28;20041;-33
2022/01/22 11:28:02;;;;;;;5.13;3.65;;;;;;;;;;5003941;28;20042;-32
2022/01/22 11:30:30;;;;;;;5.20;3.72;;;;;;;;;;5011477;28;20049;-34
2022/01/22 11:33:04;;;;;;;9.48;4.00;;;;;;;;;;5011614;28;20092;-35
2022/01/22 11:35:43;;;;;;;7.47;4.15;;;;;;;;;;5012027;28;20053;-32
2022/01/22 11:38:16;;;;;;;8.07;4.70;;;;;;;;;;4992522;28;20031;-33
2022/01/22 11:40:44;;;;;;;8.32;4.50;;;;;;;;;;4992448;28;20050;-32
2022/01/22 11:45:40;;;;;;;11.82;5.88;;;;;;;;;;4995606;28;20488;-33
2022/01/22 11:48:10;;;;;;;12.00;5.10;;;;;;;;;;5004490;28;20035;-32
2022/01/22 11:50:38;;;;;;;7.28;4.97;;;;;;;;;;5015245;28;20026;-36
2022/01/22 11:53:24;;;;;;;12.15;5.70;;;;;;;;;;5015213;28;20160;-34
2022/01/22 11:56:10;;;;;;;12.10;5.82;;;;;;;;;;5014979;28;20060;-34
2022/01/22 11:58:55;;;;;;;13.73;6.50;;;;;;;;;;5007166;28;20034;-34
2022/01/22 12:01:41;;;;;;;9.02;5.95;;;;;;;;;;5014743;28;20038;-34
2022/01/22 12:04:09;;;;;;;10.85;5.78;;;;;;;;;;5015270;28;20073;-33
2022/01/22 12:06:37;;;;;;;9.73;6.10;;;;;;;;;;5013417;28;20050;-32
2022/01/22 12:09:05;;;;;;;12.05;6.68;;;;;;;;;;5007226;28;20030;-32
2022/01/22 12:14:44;;;;;;;11.18;6.90;;;;;;;;;;5015518;28;20051;-34
2022/01/22 12:17:17;;;;;;;11.27;6.90;;;;;;;;;;5012478;28;20524;-34
2022/01/22 12:20:03;;;;;;;11.80;6.47;;;;;;;;;;4992555;28;20065;-33
2022/01/22 12:22:33;;;;;;;11.52;5.78;;;;;;;;;;4995140;28;20038;-33
2022/01/22 12:25:20;;;;;;;12.23;5.90;;;;;;;;;;4995115;28;20026;-33
2022/01/22 12:27:47;;;;;;;12.43;5.47;;;;;;;;;;4993722;28;20042;-33
2022/01/22 12:30:15;;;;;;;8.63;5.35;;;;;;;;;;5013486;28;20042;-32
2022/01/22 12:32:51;;;;;;;10.23;4.97;;;;;;;;;;5014388;28;20475;-34
2022/01/22 12:35:20;;;;;;;10.63;5.53;;;;;;;;;;5014263;28;20484;-33
2022/01/22 12:37:52;;;;;;;6.70;4.68;;;;;;;;;;5010821;28;20114;-34
2022/01/22 12:40:18;;;;;;;;;;;;;;;;;;4994327;28;20041;-34
2022/01/22 12:43:02;;;;;;;9.70;4.72;;;;;;;;;;4994705;28;20004;-32
2022/01/22 12:45:30;;;;;;;11.15;4.32;;;;;;;;;;4994425;28;20037;-32
2022/01/22 12:47:57;;;;;;;10.63;4.22;;;;;;;;;;4994121;28;20105;-36
2022/01/22 12:50:28;;;;;;;7.25;3.75;;;;;;;;;;4992700;28;20121;-34
2022/01/22 12:52:55;;;;;;;9.20;3.75;;;;;;;;;;4994422;28;20473;-35
2022/01/22 12:55:38;;;;;;;14.23;4.20;;;;;;;;;;4993794;28;20042;-33
2022/01/22 12:58:05;;;;;;;9.77;3.70;;;;;;;;;;4993914;28;20500;-34
2022/01/22 13:00:32;;;;;;;8.23;3.60;;;;;;;;;;4992542;28;20057;-33
2022/01/22 13:02:59;;;;;;;11.75;3.85;;;;;;;;;;4994261;28;20077;-33
2022/01/22 13:05:28;;;;;;;16.63;3.88;;;;;;;;;;4994061;28;20472;-33
2022/01/22 13:07:57;;;;;;;9.15;3.47;;;;;;;;;;4994321;28;20093;-32
2022/01/22 13:10:32;;;;;;;6.07;3.05;;;;;;;;;;4991102;28;20034;-33
2022/01/22 13:12:59;;;;;;;8.73;2.90;;;;;;;;;;4994371;28;20174;-33
2022/01/22 13:15:30;;;;;;;9.60;3.35;;;;;;;;;;4993575;28;20035;-34
2022/01/22 13:17:59;;;;;;;11.45;2.85;;;;;;;;;;4993995;28;20038;-33
2022/01/22 13:20:28;;;;;;;10.25;2.90;;;;;;;;;;5001164;28;20041;-33
2022/01/22 13:22:56;;;;;;;12.65;3.33;;;;;;;;;;5013788;28;20037;-35
2022/01/22 13:25:23;;;;;;;10.32;3.00;;;;;;;;;;5013165;28;20121;-32
2022/01/22 13:28:06;;;;;;;22.35;3.70;;;;;;;;;;5013437;28;20030;-33
2022/01/22 13:30:39;;;;;;;16.35;3.60;;;;;;;;;;5005208;28;20116;-35
2022/01/22 13:33:21;;;;;;;23.27;3.65;;;;;;;;;;5013351;28;20564;-33
2022/01/22 13:36:07;;;;;;;12.63;3.65;;;;;;;;;;5001403;28;20535;-34
2022/01/22 13:49:39;;;;;;;14.43;2.70;;;;;;;;;;4992343;28;20048;-34
2022/01/22 13:52:08;;;;;;;9.02;2.50;;;;;;;;;;4993381;28;20038;-35
2022/01/22 13:54:39;;;;;;;12.95;5.22;;;;;;;;;;4993997;28;20026;-36
2022/01/22 13:57:25;;;;;;;15.68;5.53;;;;;;;;;;4992898;28;20105;-35
2022/01/22 13:59:53;;;;;;;19.02;7.68;;;;;;;;;;5003775;28;20046;-41
2022/01/22 14:04:49;;;;;;;25.02;7.30;;;;;;;;;;5013535;28;20030;-37
2022/01/22 14:07:24;;;;;;;23.45;7.47;;;;;;;;;;5013214;28;20037;-34
2022/01/22 14:09:52;;;;;;;26.90;6.80;;;;;;;;;;5009982;28;20041;-34
2022/01/22 14:12:19;;;;;;;21.20;6.10;;;;;;;;;;5008403;28;20479;-35
2022/01/22 14:15:06;;;;;;;22.88;5.55;;;;;;;;;;5013448;28;20022;-36
2022/01/22 14:17:38;;;;;;;13.88;5.93;;;;;;;;;;5012599;28;20034;-34
2022/01/22 14:20:07;;;;;;;26.20;5.25;;;;;;;;;;5010853;28;20416;-34
2022/01/22 14:22:52;;;;;;;20.20;5.47;;;;;;;;;;4992880;28;20039;-36
2022/01/22 14:25:19;;;;;;;19.63;5.22;;;;;;;;;;4993607;28;20033;-34
2022/01/22 14:28:15;;;;;;;19.95;5.50;;;;;;;;;;4993082;28;20101;-34
2022/01/22 14:30:44;;;;;;;22.65;6.28;;;;;;;;;;4992805;28;20034;-34
2022/01/22 14:33:12;;;;;;;16.88;6.57;;;;;;;;;;5005183;28;20034;-36
2022/01/22 14:35:40;;;;;;;26.10;10.20;;;;;;;;;;5012879;28;20033;-34
2022/01/22 14:47:06;;;;;;;42.55;16.90;;;;;;;;;;5000871;28;20045;-37
2022/01/22 14:49:35;;;;;;;30.83;19.55;;;;;;;;;;5001650;28;20088;-37
2022/01/22 14:52:03;;;;;;;36.92;22.27;;;;;;;;;;4993719;28;20429;-36
2022/01/22 14:54:32;;;;;;;40.08;22.63;;;;;;;;;;5007157;28;20856;-37
2022/01/22 14:56:59;;;;;;;61.05;32.35;;;;;;;;;;5002735;28;20034;-35
2022/01/22 14:59:26;;;;;;;47.55;29.17;;;;;;;;;;5002717;28;20038;-38
2022/01/22 15:01:54;;;;;;;55.40;33.50;;;;;;;;;;4991381;28;20464;-36
2022/01/22 15:04:21;;;;;;;49.58;31.05;;;;;;;;;;5001815;28;20150;-37
2022/01/22 15:06:49;;;;;;;60.05;29.33;;;;;;;;;;5003024;28;20060;-36
2022/01/22 15:09:16;;;;;;;49.40;28.17;;;;;;;;;;5003471;28;20038;-35
2022/01/22 15:11:43;;;;;;;46.50;28.33;;;;;;;;;;5015564;28;20408;-37
2022/01/22 15:14:11;;;;;;;55.40;28.60;;;;;;;;;;5000548;28;20372;-38
2022/01/22 15:16:48;;;;;;;52.35;27.92;;;;;;;;;;4993068;28;20035;-36
2022/01/22 15:19:18;;;;;;;47.65;27.40;;;;;;;;;;5006538;28;20432;-35
2022/01/22 15:21:45;;;;;;;32.40;16.33;;;;;;;;;;4995803;28;20056;-41
2022/01/22 15:24:13;;;;;;;35.47;11.07;;;;;;;;;;4996897;28;20041;-40
2022/01/22 15:26:40;;;;;;;29.92;12.80;;;;;;;;;;4993515;28;20030;-46
2022/01/22 15:29:09;;;;;;;35.25;14.98;;;;;;;;;;4998296;28;20070;-41
2022/01/22 15:31:50;;;;;;;36.20;11.93;;;;;;;;;;4995555;28;20538;-44
2022/01/22 15:34:39;;;;;;;34.42;9.73;;;;;;;;;;5006679;28;20399;-44
2022/01/22 15:37:06;;;;;;;32.97;9.57;;;;;;;;;;5001234;28;20042;-40
2022/01/22 15:39:33;;;;;;;33.15;8.65;;;;;;;;;;4997663;28;20022;-43
2022/01/22 15:42:00;;;;;;;30.83;9.48;;;;;;;;;;5011971;28;20092;-43
2022/01/22 15:44:28;;;;;;;32.90;7.25;;;;;;;;;;5010781;28;20034;-44
2022/01/22 15:46:55;;;;;;;34.72;8.15;;;;;;;;;;4997229;28;20557;-41
2022/01/22 15:49:23;;;;;;;24.80;8.00;;;;;;;;;;4995408;28;20042;-48
2022/01/22 15:51:52;;;;;;;31.58;7.95;;;;;;;;;;4997671;28;20060;-47
2022/01/22 15:54:19;;;;;;;24.73;6.88;;;;;;;;;;4993971;28;20146;-47
2022/01/22 15:56:46;;;;;;;24.00;6.45;;;;;;;;;;5000499;28;20039;-44
2022/01/22 15:59:14;;;;;;;30.25;6.30;;;;;;;;;;5004487;28;20531;-42
2022/01/22 16:01:42;;;;;;;26.52;7.07;;;;;;;;;;5008525;28;20025;-43
2022/01/22 16:04:10;;;;;;;30.52;6.40;;;;;;;;;;5003465;28;20069;-41
2022/01/22 16:07:00;;;;;;;26.48;6.05;;;;;;;;;;5012166;28;20050;-47
2022/01/22 16:09:29;;;;;;;37.72;6.57;;;;;;;;;;5002498;28;20030;-43
2022/01/22 16:11:56;;;;;;;23.48;6.15;;;;;;;;;;5004988;28;20041;-46
2022/01/22 16:14:23;;;;;;;26.25;5.68;;;;;;;;;;4997065;28;20025;-46
2022/01/22 16:16:50;;;;;;;30.60;5.63;;;;;;;;;;5001685;28;20036;-42
2022/01/22 16:19:21;;;;;;;27.60;5.63;;;;;;;;;;5006106;28;20030;-46
2022/01/22 16:21:48;;;;;;;26.98;4.88;;;;;;;;;;5007536;28;20544;-46
2022/01/22 16:24:16;;;;;;;19.10;5.28;;;;;;;;;;5017866;28;20456;-47
2022/01/22 16:26:43;;;;;;;17.77;3.88;;;;;;;;;;5002235;28;20426;-47
2022/01/22 16:29:10;;;;;;;25.95;4.20;;;;;;;;;;4999308;28;20026;-44
2022/01/22 16:31:39;;;;;;;26.92;3.80;;;;;;;;;;4994693;28;20050;-48
2022/01/22 16:34:07;;;;;;;24.65;3.75;;;;;;;;;;5006422;28;20156;-43
2022/01/22 16:36:35;;;;;;;18.58;3.78;;;;;;;;;;5001610;28;20046;-47
2022/01/22 16:39:05;;;;;;;25.77;3.80;;;;;;;;;;5001793;28;20376;-42
2022/01/22 16:41:34;;;;;;;22.77;3.83;;;;;;;;;;5006029;28;20065;-42
2022/01/22 16:44:13;;;;;;;28.45;6.32;;;;;;;;;;5001957;28;20040;-47
2022/01/22 16:59:22;;;;;;;31.55;12.75;;;;;;;;;;4941945;27;4022052;-37
2022/01/22 17:01:53;;;;;;;30.13;11.25;;;;;;;;;;5066023;28;20077;-35
2022/01/22 17:04:24;;;;;;;23.00;10.68;;;;;;;;;;5055353;28;20040;-35
2022/01/22 17:06:52;;;;;;;19.77;7.90;;;;;;;;;;5048860;28;20048;-35
2022/01/22 17:14:38;;;;;;;15.27;4.22;;;;;;;;;;5048819;28;20076;-35
2022/01/22 17:17:05;;;;;;;12.13;4.72;;;;;;;;;;5050695;28;20040;-34